createdAt,value
2019-03-20T01:19:19.406Z,5.40
2019-03-20T01:23:27.513Z,5.00
2019-03-20T01:35:50.522Z,4.50
2019-03-20T02:33:35.560Z,5.50
2019-03-20T02:41:51.113Z,8.30
2019-03-20T02:45:59.566Z,5.47
2019-03-20T02:50:07.958Z,6.00
2019-03-20T02:54:16.077Z,5.80
2019-03-20T02:58:24.190Z,5.50
2019-03-20T03:02:32.320Z,5.13
2019-03-20T03:06:40.427Z,6.13
2019-03-20T03:10:48.577Z,5.20
2019-03-20T03:14:56.686Z,5.00
2019-03-20T03:19:04.793Z,5.50
2019-03-20T03:23:12.917Z,5.87
2019-03-20T03:27:21.034Z,5.30
2019-03-20T03:31:29.155Z,4.87
2019-03-20T03:35:37.274Z,4.63
2019-03-20T03:39:45.389Z,4.83
2019-03-20T03:43:53.503Z,4.90
2019-03-20T03:48:01.619Z,5.37
2019-03-20T03:52:09.727Z,5.53
2019-03-20T03:56:17.844Z,5.37
2019-03-20T04:00:25.961Z,5.03
2019-03-20T04:04:34.069Z,5.03
2019-03-20T04:08:42.178Z,4.53
2019-03-20T04:12:50.295Z,4.77
2019-03-20T04:16:58.396Z,4.87
2019-03-20T04:21:06.501Z,5.57
2019-03-20T04:25:14.686Z,5.73
2019-03-20T04:29:22.753Z,5.47
2019-03-20T04:33:30.857Z,5.40
2019-03-20T04:37:38.962Z,4.40
2019-03-20T04:41:47.092Z,4.60
2019-03-20T04:45:55.206Z,4.87
2019-03-20T04:50:03.572Z,4.57
2019-03-20T04:54:11.677Z,4.50
2019-03-20T04:58:19.787Z,4.80
2019-03-20T05:02:27.888Z,4.93
2019-03-20T05:06:35.996Z,6.07
2019-03-20T05:10:44.118Z,7.40
2019-03-20T05:14:52.233Z,6.33
2019-03-20T05:31:22.686Z,5.15
2019-03-20T05:52:00.583Z,5.67
2019-03-20T08:41:24.843Z,4.67
2019-03-20T08:45:32.957Z,6.95
2019-03-20T10:45:11.385Z,7.05
2019-03-20T10:49:19.502Z,6.80
2019-03-20T10:57:35.061Z,5.53
2019-03-20T11:01:43.172Z,5.80
2019-03-20T11:05:51.269Z,6.60
2019-03-20T11:09:59.384Z,6.20
2019-03-20T13:17:03.387Z,4.90
2019-03-20T14:14:54.204Z,4.70
2019-03-20T14:23:10.362Z,5.00
2019-03-20T17:41:51.263Z,6.20
2019-03-20T17:45:59.441Z,5.50
2019-03-20T17:50:10.774Z,5.73
2019-03-20T17:54:18.929Z,6.20
2019-03-20T17:58:27.091Z,7.20
2019-03-20T18:02:35.237Z,6.67
2019-03-20T18:06:43.389Z,8.13
2019-03-20T18:10:51.586Z,7.97
2019-03-20T18:14:59.769Z,7.57
2019-03-20T18:19:07.931Z,6.80
2019-03-20T18:23:16.074Z,6.97
2019-03-20T18:27:24.357Z,8.03
2019-03-20T18:31:32.524Z,7.67
2019-03-20T18:35:40.673Z,8.43
2019-03-20T18:39:48.910Z,56.17
2019-03-20T18:43:57.082Z,67.83
2019-03-20T18:48:05.300Z,124.60
2019-03-20T18:52:13.465Z,138.33
2019-03-20T18:56:21.814Z,166.07
2019-03-20T19:00:30.312Z,9.57
2019-03-20T19:04:38.459Z,8.00
2019-03-20T19:08:46.649Z,7.30
2019-03-20T19:12:54.806Z,5.87
2019-03-20T19:17:02.979Z,7.73
2019-03-20T19:50:04.673Z,7.85
